Time;durP1;ratioP1;P1;durP2;ratioP2;P2;SDS_P1;SDS_P2;PMS_P1;PMS_P2;Temp;Humidity;BMP_temperature;BMP_pressure;BME280_temperature;BME280_humidity;BME280_pressure;Samples;Min_cycle;Max_cycle;Signal;HPM_P1;HPM_P2
2021/01/26 00:01:35;;;;;;;19.35;10.68;;;;;;;-0.22;87.00;98928.17;1780146;80;25786;-64
2021/01/26 00:04:02;;;;;;;20.23;11.25;;;;;;;-0.23;86.95;98931.88;1780280;80;25742;-61
2021/01/26 00:06:29;;;;;;;20.10;12.20;;;;;;;-0.24;87.02;98935.63;1780263;80;25810;-63
2021/01/26 00:08:55;;;;;;;21.90;11.78;;;;;;;-0.24;86.94;98938.80;1780127;80;25913;-60
2021/01/26 00:11:22;;;;;;;19.27;11.25;;;;;;;-0.23;86.97;98939.06;1780205;80;25960;-44
2021/01/26 00:13:49;;;;;;;20.90;11.53;;;;;;;-0.24;86.84;98940.13;1780145;80;26387;-58
2021/01/26 00:16:16;;;;;;;21.95;11.15;;;;;;;-0.23;86.84;98939.06;1767765;80;25858;-63
2021/01/26 00:18:44;;;;;;;20.90;11.28;;;;;;;-0.23;86.86;98939.06;1749165;81;25843;-64
2021/01/26 00:21:10;;;;;;;19.23;10.98;;;;;;;-0.22;86.93;98940.13;1749026;80;26727;-44
2021/01/26 00:23:37;;;;;;;20.30;11.50;;;;;;;-0.21;86.94;98939.59;1749085;81;25826;-61
2021/01/26 00:26:04;;;;;;;20.12;10.82;;;;;;;-0.22;86.78;98943.33;1749023;80;25768;-51
2021/01/26 00:28:31;;;;;;;19.75;11.57;;;;;;;-0.21;86.77;98943.57;1749099;81;25842;-61
2021/01/26 00:30:57;;;;;;;22.85;12.18;;;;;;;-0.21;86.72;98940.91;1749143;80;25883;-60
2021/01/26 00:33:24;;;;;;;20.75;11.65;;;;;;;-0.24;86.50;98946.77;1748733;81;25709;-51
2021/01/26 00:35:51;;;;;;;24.35;12.05;;;;;;;-0.26;86.56;98946.24;1749268;80;25763;-61
2021/01/26 00:38:19;;;;;;;20.30;10.82;;;;;;;-0.24;86.66;98947.58;1748973;81;26478;-55
2021/01/26 00:40:47;;;;;;;18.77;11.63;;;;;;;-0.24;86.62;98950.23;1748752;81;25764;-43
2021/01/26 00:43:17;;;;;;;22.93;12.18;;;;;;;-0.24;86.60;98952.08;1749151;81;25673;-55
2021/01/26 00:45:44;;;;;;;21.65;12.43;;;;;;;-0.24;86.64;98946.25;1749738;81;25851;-60
2021/01/26 00:48:11;;;;;;;25.23;14.28;;;;;;;-0.23;86.64;98941.18;1750006;81;25760;-42
2021/01/26 00:50:38;;;;;;;22.37;11.68;;;;;;;-0.23;86.56;98940.39;1749843;81;25649;-55
2021/01/26 00:53:05;;;;;;;24.52;12.28;;;;;;;-0.22;86.63;98943.33;1750137;81;25646;-57
2021/01/26 00:55:32;;;;;;;31.42;13.65;;;;;;;-0.22;86.50;98948.10;1752005;80;26262;-42
2021/01/26 00:58:01;;;;;;;27.32;13.75;;;;;;;-0.24;86.46;98944.92;1750590;80;27186;-62
2021/01/26 01:00:35;;;;;;;28.47;14.68;;;;;;;-0.23;86.52;98940.39;1750323;81;25661;-50
2021/01/26 01:03:03;;;;;;;27.58;15.25;;;;;;;-0.25;86.53;98930.03;1750578;81;25641;-56
2021/01/26 01:05:30;;;;;;;29.75;15.23;;;;;;;-0.25;86.55;98941.20;1750758;81;25758;-49
2021/01/26 01:07:58;;;;;;;26.82;14.58;;;;;;;-0.27;86.59;98938.03;1750627;81;25699;-60
2021/01/26 01:10:29;;;;;;;30.92;15.32;;;;;;;-0.26;86.70;98939.06;1750577;81;25736;-48
2021/01/26 01:12:56;;;;;;;30.90;15.35;;;;;;;-0.25;86.71;98945.19;1750552;80;25695;-40
2021/01/26 01:15:23;;;;;;;32.78;16.52;;;;;;;-0.27;86.67;98944.13;1750506;81;25634;-40
2021/01/26 01:17:50;;;;;;;34.10;16.62;;;;;;;-0.26;86.78;98939.59;1750536;81;25554;-56
2021/01/26 01:20:24;;;;;;;36.63;17.57;;;;;;;-0.25;86.85;98935.89;1750437;81;25608;-60
2021/01/26 01:22:51;;;;;;;38.98;19.15;;;;;;;-0.24;86.88;98938.28;1750549;81;25712;-48
2021/01/26 01:25:18;;;;;;;37.65;18.87;;;;;;;-0.24;86.92;98931.64;1750447;81;25709;-59
2021/01/26 01:27:46;;;;;;;36.00;19.17;;;;;;;-0.25;86.91;98930.03;1750609;81;25566;-48
2021/01/26 01:30:21;;;;;;;41.30;20.35;;;;;;;-0.24;86.96;98926.83;1750502;81;25656;-58
2021/01/26 01:32:48;;;;;;;40.50;20.43;;;;;;;-0.24;86.99;98930.31;1750671;81;25657;-54
2021/01/26 01:35:16;;;;;;;41.80;20.15;;;;;;;-0.23;87.02;98931.88;1750526;81;26161;-56
2021/01/26 01:37:43;;;;;;;46.30;21.02;;;;;;;-0.21;87.04;98933.73;1750491;81;26271;-41
2021/01/26 01:40:15;;;;;;;43.28;20.72;;;;;;;-0.20;87.04;98930.56;1750582;81;26196;-56
2021/01/26 01:42:42;;;;;;;39.75;20.05;;;;;;;-0.17;87.16;98937.18;1751718;80;25699;-60
2021/01/26 01:45:11;;;;;;;44.20;21.25;;;;;;;-0.18;87.06;98927.63;1775726;80;25671;-43
2021/01/26 01:47:48;;;;;;;48.73;21.62;;;;;;;-0.18;87.14;98929.75;1775725;80;25704;-51
2021/01/26 01:50:32;;;;;;;47.38;21.45;;;;;;;-0.18;87.08;98933.73;1775653;80;25668;-59
2021/01/26 01:53:21;;;;;;;46.37;21.37;;;;;;;-0.17;87.08;98935.85;1775625;80;25613;-41
2021/01/26 01:55:58;;;;;;;44.18;21.75;;;;;;;-0.18;87.08;98937.72;1778349;80;25651;-59
2021/01/26 01:58:30;;;;;;;49.15;22.55;;;;;;;-0.17;87.15;98937.18;1779714;80;25508;-46
2021/01/26 02:01:10;;;;;;;45.33;21.10;;;;;;;-0.09;87.13;98933.97;1847968;76;34229;-41
2021/01/26 02:03:42;;;;;;;45.50;22.15;;;;;;;-0.16;87.14;98937.45;1818804;78;25476;-58
2021/01/26 02:06:11;;;;;;;47.33;21.77;;;;;;;-0.14;87.18;98935.31;1818710;78;26146;-41
2021/01/26 02:08:53;;;;;;;48.20;22.55;;;;;;;-0.14;87.09;98933.44;1818615;78;25562;-39
2021/01/26 02:11:21;;;;;;;48.33;22.70;;;;;;;-0.15;87.10;98935.86;1818820;78;25633;-41
2021/01/26 02:13:49;;;;;;;44.55;21.85;;;;;;;-0.14;87.13;98939.30;1818704;78;25613;-46
2021/01/26 02:16:33;;;;;;;43.13;20.82;;;;;;;-0.14;87.11;98937.97;1818602;78;25618;-56
2021/01/26 02:19:36;;;;;;;45.15;19.62;;;;;;;-0.14;87.11;98945.95;1818685;78;25873;-52
2021/01/26 02:22:27;;;;;;;47.45;21.75;;;;;;;-0.14;87.09;98950.72;1818683;78;25570;-42
2021/01/26 02:25:53;;;;;;;43.30;20.80;;;;;;;-0.14;87.14;98948.60;1818721;78;25617;-40
2021/01/26 02:28:46;;;;;;;50.10;22.70;;;;;;;-0.15;87.13;98950.98;1818661;78;25571;-47
2021/01/26 02:31:42;;;;;;;48.13;21.17;;;;;;;-0.16;87.17;98954.19;1815260;78;25543;-47
2021/01/26 02:34:36;;;;;;;46.02;20.72;;;;;;;-0.16;87.26;98952.86;1818700;78;25697;-55
2021/01/26 02:37:32;;;;;;;42.17;21.42;;;;;;;-0.16;87.23;98961.38;1818702;78;25573;-55
2021/01/26 02:40:33;;;;;;;45.95;21.25;;;;;;;-0.16;87.27;98956.84;1818726;78;25381;-45
2021/01/26 02:43:16;;;;;;;50.85;23.50;;;;;;;-0.15;87.29;98953.64;1808367;78;25380;-52
2021/01/26 02:46:01;;;;;;;43.83;20.82;;;;;;;-0.15;87.28;98956.30;1818621;78;25582;-39
2021/01/26 02:48:36;;;;;;;47.38;22.27;;;;;;;-0.15;87.25;98959.78;1817802;78;25693;-44
2021/01/26 02:51:34;;;;;;;47.15;21.25;;;;;;;-0.16;87.28;98963.49;1818373;78;25543;-53
2021/01/26 02:54:18;;;;;;;49.80;21.37;;;;;;;-0.15;87.23;98958.96;1818749;78;25591;-42
2021/01/26 02:57:11;;;;;;;41.83;21.75;;;;;;;-0.16;87.21;98958.72;1818658;78;25574;-57
2021/01/26 02:59:55;;;;;;;47.60;21.68;;;;;;;-0.16;87.22;98964.03;1820308;78;25629;-41
2021/01/26 03:02:30;;;;;;;45.40;20.05;;;;;;;-0.15;87.26;98965.09;1827875;78;26186;-54
2021/01/26 03:05:11;;;;;;;44.50;21.25;;;;;;;-0.16;87.20;98968.02;1827852;78;25537;-40
2021/01/26 03:08:00;;;;;;;42.48;21.42;;;;;;;-0.16;87.20;98968.80;1827956;78;25463;-50
2021/01/26 03:10:41;;;;;;;46.90;22.37;;;;;;;-0.16;87.20;98970.13;1827892;78;25466;-53
2021/01/26 03:13:11;;;;;;;45.88;21.05;;;;;;;-0.14;87.22;98974.64;1827052;78;25459;-41
2021/01/26 03:15:44;;;;;;;;;;;;;;;-0.15;87.18;98974.39;1802341;78;25940;-44
2021/01/26 03:18:17;;;;;;;42.75;19.87;;;;;;;-0.15;87.20;98969.08;1826105;78;25483;-43
2021/01/26 03:20:53;;;;;;;42.83;20.88;;;;;;;-0.16;87.21;98974.13;1827244;78;25376;-43
2021/01/26 03:23:25;;;;;;;44.75;20.48;;;;;;;-0.14;87.24;98973.86;1827327;78;25558;-51
2021/01/26 03:25:53;;;;;;;44.53;20.92;;;;;;;-0.14;87.21;98981.83;1827224;78;25534;-54
2021/01/26 03:28:24;;;;;;;46.48;22.10;;;;;;;-0.14;87.21;98969.87;1827231;78;25691;-50
2021/01/26 03:30:55;;;;;;;42.17;20.70;;;;;;;-0.14;87.17;98975.97;1827212;78;25337;-56
2021/01/26 03:33:35;;;;;;;41.28;21.25;;;;;;;-0.11;87.19;98982.08;1827356;78;25559;-54
2021/01/26 03:36:03;;;;;;;46.18;20.97;;;;;;;-0.11;87.19;98984.74;1827225;78;25326;-52
2021/01/26 03:38:33;;;;;;;41.25;20.90;;;;;;;-0.09;87.21;98984.47;1827058;78;25500;-53
2021/01/26 03:41:05;;;;;;;42.27;21.12;;;;;;;-0.08;87.19;98982.09;1827075;78;26653;-56
2021/01/26 03:43:35;;;;;;;36.83;20.15;;;;;;;-0.07;87.10;98987.66;1827141;78;25321;-55
2021/01/26 03:46:41;;;;;;;46.48;22.58;;;;;;;-0.08;87.03;98978.10;1827251;78;25582;-57
2021/01/26 03:49:14;;;;;;;42.98;20.30;;;;;;;-0.08;87.04;98992.18;1827325;78;25542;-57
2021/01/26 03:52:09;;;;;;;44.90;20.95;;;;;;;-0.07;87.00;98981.00;1827300;78;25373;-54
2021/01/26 03:54:53;;;;;;;40.33;19.42;;;;;;;-0.08;86.92;98981.55;1827178;78;25957;-55
2021/01/26 03:57:57;;;;;;;39.67;19.73;;;;;;;-0.08;86.88;98984.75;1827169;78;25510;-55
2021/01/26 04:00:41;;;;;;;38.08;18.20;;;;;;;-0.08;86.95;98978.89;1823037;77;25807;-43
2021/01/26 04:03:28;;;;;;;37.35;19.20;;;;;;;-0.10;86.88;98983.69;1816573;78;25551;-50
2021/01/26 04:06:21;;;;;;;42.17;19.95;;;;;;;-0.11;86.82;98999.36;1818169;78;25548;-40
2021/01/26 04:09:05;;;;;;;41.35;20.37;;;;;;;-0.12;86.75;98994.31;1818023;78;26334;-44
2021/01/26 04:11:48;;;;;;;43.00;19.05;;;;;;;-0.15;86.70;98997.50;1811663;78;25393;-55
2021/01/26 04:14:38;;;;;;;36.40;18.85;;;;;;;-0.15;86.76;98997.50;1784528;78;25337;-55
2021/01/26 04:17:16;;;;;;;35.50;17.98;;;;;;;-0.16;86.80;98999.91;1816287;78;25369;-55
2021/01/26 04:19:48;;;;;;;35.25;17.50;;;;;;;-0.17;86.78;98995.14;1818040;78;25492;-54
2021/01/26 04:22:16;;;;;;;32.70;17.73;;;;;;;-0.17;86.77;98993.81;1815520;78;26860;-54
2021/01/26 04:24:43;;;;;;;35.55;18.10;;;;;;;-0.17;86.76;98994.33;1817981;78;25469;-55
2021/01/26 04:27:14;;;;;;;34.80;16.93;;;;;;;-0.16;86.76;99003.90;1818063;78;25500;-50
2021/01/26 04:29:41;;;;;;;37.13;18.00;;;;;;;-0.16;86.75;99008.67;1817938;78;25566;-50
2021/01/26 04:32:08;;;;;;;33.78;17.40;;;;;;;-0.14;86.84;99005.21;1817846;78;25360;-56
2021/01/26 04:34:34;;;;;;;34.98;17.48;;;;;;;-0.14;86.75;99002.55;1817926;78;25953;-56
2021/01/26 04:37:01;;;;;;;35.17;17.87;;;;;;;-0.14;86.76;99003.88;1818022;78;25635;-51
2021/01/26 04:39:28;;;;;;;37.70;17.27;;;;;;;-0.13;86.75;99001.50;1817833;78;25356;-50
2021/01/26 04:42:19;;;;;;;39.23;18.82;;;;;;;-0.12;86.76;98999.11;1817990;78;25478;-54
2021/01/26 04:45:10;;;;;;;41.63;21.00;;;;;;;-0.12;86.77;99000.45;1818099;78;25386;-56
2021/01/26 04:47:54;;;;;;;39.00;19.23;;;;;;;-0.12;86.79;98994.31;1817986;78;26625;-54
2021/01/26 04:50:29;;;;;;;37.13;17.95;;;;;;;-0.12;86.70;98993.80;1817636;78;25321;-48
2021/01/26 04:53:27;;;;;;;33.55;16.82;;;;;;;-0.11;86.74;98992.72;1817888;78;25605;-50
2021/01/26 04:56:28;;;;;;;34.67;17.42;;;;;;;-0.13;86.61;98985.55;1817774;78;25829;-55
2021/01/26 04:59:30;;;;;;;30.80;15.83;;;;;;;-0.15;86.49;98987.69;1818057;78;25321;-56
2021/01/26 05:02:26;;;;;;;30.82;15.70;;;;;;;-0.16;86.52;98998.59;1817916;78;25694;-50
2021/01/26 05:05:04;;;;;;;32.20;15.88;;;;;;;-0.17;86.61;99005.77;1816670;78;25505;-42
2021/01/26 05:07:45;;;;;;;30.97;16.73;;;;;;;-0.16;86.65;99005.23;1816488;78;25307;-41
2021/01/26 05:10:42;;;;;;;27.45;15.78;;;;;;;-0.17;86.65;99003.11;1817671;78;25614;-41
2021/01/26 05:13:30;;;;;;;30.95;16.48;;;;;;;-0.18;86.64;99005.50;1817630;78;25385;-40
2021/01/26 05:16:08;;;;;;;29.67;15.28;;;;;;;-0.18;86.61;99012.14;1817564;78;26163;-54
2021/01/26 05:18:46;;;;;;;32.40;15.40;;;;;;;-0.19;86.58;99014.52;1816954;78;25342;-43
2021/01/26 05:21:24;;;;;;;32.85;16.90;;;;;;;-0.20;86.55;99009.75;1817848;78;25515;-53
2021/01/26 05:23:56;;;;;;;34.45;16.17;;;;;;;-0.20;86.54;99016.94;1816858;78;25465;-56
2021/01/26 05:26:23;;;;;;;33.15;16.12;;;;;;;-0.21;86.55;99012.13;1817889;78;25642;-56
2021/01/26 05:28:50;;;;;;;30.92;15.32;;;;;;;-0.20;86.59;99019.05;1818028;78;27037;-56
2021/01/26 05:31:28;;;;;;;30.88;15.88;;;;;;;-0.20;86.57;99020.38;1817929;78;25539;-57
2021/01/26 05:34:08;;;;;;;32.48;15.48;;;;;;;-0.20;86.45;99018.27;1817973;78;26000;-55
2021/01/26 05:36:35;;;;;;;;;;;;;;;-0.20;86.43;98994.34;1820559;78;25586;-56
2021/01/26 05:39:06;;;;;;;30.08;15.03;;;;;;;-0.22;86.37;99027.83;1818075;78;25448;-56
2021/01/26 05:41:33;;;;;;;34.63;15.58;;;;;;;-0.23;86.32;99025.44;1786514;78;26658;-53
2021/01/26 05:44:00;;;;;;;30.45;16.30;;;;;;;-0.22;86.41;99029.16;1817812;78;25598;-41
2021/01/26 05:46:43;;;;;;;29.95;14.85;;;;;;;-0.22;86.39;99027.83;1818044;78;25388;-57
2021/01/26 05:49:12;;;;;;;35.33;16.42;;;;;;;-0.21;86.36;99032.61;1817964;78;25357;-55
2021/01/26 05:51:42;;;;;;;32.30;15.13;;;;;;;-0.22;86.35;99025.17;1817698;78;25623;-55
2021/01/26 05:54:14;;;;;;;30.60;15.60;;;;;;;-0.21;86.38;99024.63;1817912;78;26175;-52
2021/01/26 05:56:51;;;;;;;34.30;16.00;;;;;;;-0.21;86.39;99031.28;1815570;78;25579;-50
2021/01/26 05:59:34;;;;;;;32.45;16.10;;;;;;;-0.20;86.38;99030.22;1817961;78;25614;-50
2021/01/26 06:02:14;;;;;;;36.63;17.02;;;;;;;-0.20;86.42;99035.00;1786382;78;25394;-51
2021/01/26 06:04:43;;;;;;;31.15;16.70;;;;;;;-0.19;86.45;99034.45;1817542;78;25505;-41
2021/01/26 06:07:21;;;;;;;31.68;16.10;;;;;;;-0.18;86.45;99039.27;1817921;78;26723;-47
2021/01/26 06:09:49;;;;;;;34.75;16.02;;;;;;;-0.20;86.36;99035.54;1817846;78;25622;-57
2021/01/26 06:12:21;;;;;;;37.28;17.23;;;;;;;-0.19;86.34;99039.77;1817927;78;25311;-55
2021/01/26 06:14:59;;;;;;;34.63;18.45;;;;;;;-0.19;86.44;99042.43;1817877;78;25638;-55
2021/01/26 06:17:30;;;;;;;35.60;17.82;;;;;;;-0.18;86.26;99045.91;1813420;78;25487;-55
2021/01/26 06:20:22;;;;;;;34.03;16.37;;;;;;;-0.20;86.29;99044.84;1817192;78;25708;-56
2021/01/26 06:22:52;;;;;;;41.13;19.85;;;;;;;-0.19;86.20;99051.73;1817874;78;25321;-54
2021/01/26 06:25:32;;;;;;;34.27;18.32;;;;;;;-0.21;86.12;99057.86;1818057;78;25349;-56
2021/01/26 06:28:13;;;;;;;36.40;18.48;;;;;;;-0.23;86.00;99050.69;1817819;78;25607;-55
2021/01/26 06:31:10;;;;;;;31.70;15.53;;;;;;;-0.25;86.05;99054.94;1814619;78;25558;-55
2021/01/26 06:34:12;;;;;;;31.02;16.45;;;;;;;-0.26;85.91;99065.83;1817101;78;25710;-55
2021/01/26 06:37:30;;;;;;;30.88;15.03;;;;;;;-0.27;85.83;99074.34;1821685;77;25378;-51
2021/01/26 06:40:05;;;;;;;28.47;14.80;;;;;;;-0.28;85.95;99067.42;1807339;77;25512;-54
2021/01/26 06:43:04;;;;;;;25.12;14.38;;;;;;;-0.30;85.80;99078.86;1800746;77;25722;-52
2021/01/26 06:46:00;;;;;;;;;;;;;;;-0.32;85.84;99079.66;1807482;79;25465;-56
2021/01/26 06:48:58;;;;;;;27.02;13.40;;;;;;;-0.31;85.84;99078.58;1757001;81;26161;-50
2021/01/26 06:51:49;;;;;;;24.20;13.30;;;;;;;-0.35;85.64;99080.73;1815560;77;25570;-55
2021/01/26 06:55:11;;;;;;;25.23;13.58;;;;;;;-0.36;85.59;99085.23;1815903;78;25469;-55
2021/01/26 06:58:09;;;;;;;26.00;13.53;;;;;;;-0.36;85.70;99096.39;1824524;77;25583;-54
2021/01/26 07:01:06;;;;;;;27.35;14.53;;;;;;;-0.35;85.76;99097.46;1767530;80;25450;-55
2021/01/26 07:03:49;;;;;;;30.45;13.80;;;;;;;-0.36;85.70;99085.23;1804536;79;26167;-50
2021/01/26 07:06:43;;;;;;;27.80;14.73;;;;;;;-0.37;85.58;99095.61;1780005;80;25433;-54
2021/01/26 07:09:42;;;;;;;26.57;14.05;;;;;;;-0.38;85.73;99102.77;1709770;82;26211;-51
2021/01/26 07:12:43;;;;;;;28.15;15.25;;;;;;;-0.34;85.76;99095.59;1752857;79;25377;-55
2021/01/26 07:15:42;;;;;;;29.90;14.55;;;;;;;-0.35;85.51;99101.98;1745268;81;25724;-56
2021/01/26 07:18:52;;;;;;;25.25;12.98;;;;;;;-0.35;85.31;99096.13;1743617;81;25720;-58
2021/01/26 07:21:45;;;;;;;;;;;;;;;-0.36;85.24;99097.19;1746287;81;25594;-52
2021/01/26 07:24:58;;;;;;;21.70;12.28;;;;;;;-0.38;85.25;99097.45;1735340;80;38836;-56
2021/01/26 07:28:07;;;;;;;27.07;14.60;;;;;;;-0.37;85.33;99102.25;1740193;81;25563;-56
2021/01/26 07:30:42;;;;;;;32.87;16.33;;;;;;;-0.37;85.32;99099.59;1744413;81;25584;-58
2021/01/26 07:33:32;;;;;;;32.70;17.20;;;;;;;-0.36;85.38;99102.50;1744418;81;26926;-57
2021/01/26 07:36:23;;;;;;;;;;;;;;;-0.34;85.40;99099.07;1747286;81;25367;-55
2021/01/26 07:39:04;;;;;;;36.17;17.73;;;;;;;-0.33;85.33;99099.31;1739776;81;25583;-52
2021/01/26 07:41:39;;;;;;;27.70;16.40;;;;;;;-0.33;85.23;99102.52;1771983;80;25544;-54
2021/01/26 07:44:29;;;;;;;34.18;16.48;;;;;;;-0.33;85.08;99103.84;1785673;80;25562;-47
2021/01/26 07:47:02;;;;;;;35.00;17.50;;;;;;;-0.31;85.13;99107.02;1772804;80;27101;-50
2021/01/26 07:49:55;;;;;;;34.10;16.00;;;;;;;-0.28;84.92;99110.48;1785434;80;25592;-44
2021/01/26 07:52:26;;;;;;;32.45;14.93;;;;;;;-0.25;84.99;99112.61;1772474;80;25529;-53
2021/01/26 07:55:43;;;;;;;29.70;14.30;;;;;;;-0.24;84.88;99116.34;1785582;80;25511;-52
2021/01/26 07:58:12;;;;;;;29.23;14.55;;;;;;;-0.24;84.70;99108.37;1785763;80;25591;-50
2021/01/26 08:00:45;;;;;;;30.08;15.28;;;;;;;-0.20;84.78;99108.09;1772247;80;25710;-43
2021/01/26 08:03:12;;;;;;;28.92;15.05;;;;;;;-0.18;84.57;99115.80;1785134;79;25354;-47
2021/01/26 08:05:44;;;;;;;27.42;14.05;;;;;;;-0.17;84.61;99122.72;1763566;81;25607;-44
2021/01/26 08:08:31;;;;;;;29.27;14.38;;;;;;;-0.18;83.80;99122.45;1763836;81;25619;-47
2021/01/26 08:11:25;;;;;;;35.58;16.23;;;;;;;-0.17;84.08;99124.56;1762700;81;25514;-46
2021/01/26 08:14:05;;;;;;;34.03;14.90;;;;;;;-0.16;84.34;99116.86;1763882;81;26711;-53
2021/01/26 08:16:40;;;;;;;35.63;15.65;;;;;;;-0.15;84.27;99112.61;1763725;81;25619;-48
2021/01/26 08:19:27;;;;;;;32.10;16.30;;;;;;;-0.16;84.26;99124.30;1763864;81;25558;-48
2021/01/26 08:21:57;;;;;;;39.10;17.20;;;;;;;-0.15;84.44;99125.91;1730136;81;25528;-50
2021/01/26 08:24:33;;;;;;;35.05;15.55;;;;;;;-0.13;84.20;99132.28;1764013;81;25572;-56
2021/01/26 08:27:28;;;;;;;38.67;16.37;;;;;;;-0.14;84.24;99130.14;1763832;81;27063;-44
2021/01/26 08:30:01;;;;;;;36.55;16.67;;;;;;;-0.16;84.25;99149.55;1763855;81;25579;-53
2021/01/26 08:32:40;;;;;;;39.33;17.57;;;;;;;-0.09;84.21;99135.45;1888143;76;33284;-54
2021/01/26 08:35:24;;;;;;;36.13;17.25;;;;;;;-0.16;84.34;99146.89;1857513;77;25655;-43
2021/01/26 08:37:53;;;;;;;36.65;16.32;;;;;;;-0.14;84.35;99141.31;1857449;77;26393;-53
2021/01/26 08:40:34;;;;;;;37.95;18.00;;;;;;;-0.15;84.21;99146.34;1857653;77;25777;-49
2021/01/26 08:43:05;;;;;;;40.15;18.82;;;;;;;-0.15;84.17;99148.50;1857777;77;25631;-54
2021/01/26 08:45:38;;;;;;;34.63;16.42;;;;;;;-0.16;84.13;99144.77;1857692;77;25810;-45
2021/01/26 08:48:25;;;;;;;41.05;17.20;;;;;;;-0.15;84.29;99133.88;1857903;77;25579;-45
2021/01/26 08:50:57;;;;;;;30.00;16.12;;;;;;;-0.14;84.28;99134.13;1856793;77;25694;-45
2021/01/26 08:53:35;;;;;;;36.95;16.97;;;;;;;-0.11;84.25;99132.27;1857719;77;25600;-50
2021/01/26 08:56:25;;;;;;;37.70;17.30;;;;;;;-0.07;84.20;99129.36;1857907;77;26300;-49
2021/01/26 08:58:56;;;;;;;36.05;15.80;;;;;;;-0.04;84.32;99118.17;1857353;77;25862;-52
2021/01/26 09:01:36;;;;;;;37.83;16.73;;;;;;;-0.01;84.25;99114.19;1857769;77;25944;-48
2021/01/26 09:04:20;;;;;;;32.45;14.78;;;;;;;0.10;84.25;99120.28;1857858;77;26249;-42
2021/01/26 09:06:48;;;;;;;37.83;17.20;;;;;;;0.16;84.03;99121.34;1857675;77;25635;-48
2021/01/26 09:09:33;;;;;;;37.83;16.23;;;;;;;0.24;84.18;99129.83;1857789;77;25644;-50
2021/01/26 09:12:07;;;;;;;35.33;16.37;;;;;;;0.28;84.09;99129.03;1857664;77;25628;-42
2021/01/26 09:14:41;;;;;;;31.82;15.65;;;;;;;0.33;83.91;99128.23;1857739;77;25727;-48
2021/01/26 09:17:33;;;;;;;32.83;14.55;;;;;;;0.35;83.38;99127.43;1857793;77;25978;-51
2021/01/26 09:20:17;;;;;;;29.30;14.25;;;;;;;0.39;83.39;99117.83;1857393;77;25588;-47
2021/01/26 09:22:44;;;;;;;26.85;13.58;;;;;;;0.43;83.33;99116.78;1857804;77;25801;-51
2021/01/26 09:25:17;;;;;;;30.77;15.48;;;;;;;0.52;83.16;99135.10;1857705;77;25732;-42
2021/01/26 09:28:00;;;;;;;34.30;14.65;;;;;;;0.60;83.26;99135.89;1857632;77;25707;-49
2021/01/26 09:30:29;;;;;;;23.92;12.53;;;;;;;0.69;83.24;99146.77;1857674;77;26218;-53
2021/01/26 09:33:04;;;;;;;26.75;12.20;;;;;;;0.78;83.15;99142.46;1832312;77;25916;-51
2021/01/26 09:35:44;;;;;;;26.87;12.68;;;;;;;0.86;82.99;99147.77;1831405;78;25671;-44
2021/01/26 09:38:23;;;;;;;23.75;11.93;;;;;;;0.88;82.28;99141.09;1832636;78;25832;-44
2021/01/26 09:41:07;;;;;;;30.80;13.58;;;;;;;0.90;82.03;99156.28;1832173;78;25746;-50
2021/01/26 09:43:38;;;;;;;29.45;13.43;;;;;;;0.91;82.25;99161.84;1802114;78;27283;-45
2021/01/26 09:46:09;;;;;;;26.75;12.50;;;;;;;0.94;82.50;99171.17;1831834;78;25590;-44
2021/01/26 09:48:49;;;;;;;27.07;13.32;;;;;;;0.95;82.22;99166.09;1801984;78;25646;-42
2021/01/26 09:51:26;;;;;;;28.95;13.35;;;;;;;0.95;82.06;99170.09;1831889;78;25606;-49
2021/01/26 09:54:05;;;;;;;23.07;12.53;;;;;;;0.92;81.68;99174.65;1832003;78;25703;-48
2021/01/26 09:56:35;;;;;;;29.00;12.88;;;;;;;0.82;81.44;99176.80;1831948;78;25780;-45
2021/01/26 09:59:06;;;;;;;30.30;13.03;;;;;;;0.82;81.44;99176.80;1831905;78;25650;-47
2021/01/26 10:01:34;;;;;;;29.72;13.38;;;;;;;0.80;81.54;99178.13;1831919;78;25682;-53
2021/01/26 10:04:05;;;;;;;27.13;12.40;;;;;;;0.77;81.78;99170.16;1831902;78;25628;-51
2021/01/26 10:09:22;;;;;;;24.43;12.70;;;;;;;0.81;81.38;99185.84;1847027;76;35045;-47
2021/01/26 10:11:51;;;;;;;24.07;12.40;;;;;;;0.73;81.46;99183.73;1817497;78;25571;-49
2021/01/26 10:14:27;;;;;;;25.15;13.48;;;;;;;0.73;81.62;99191.72;1817510;78;25956;-51
2021/01/26 10:16:57;;;;;;;31.80;14.10;;;;;;;0.73;81.58;99194.38;1817205;78;25772;-50
2021/01/26 10:19:29;;;;;;;29.63;13.68;;;;;;;0.75;81.90;99184.29;1817540;78;25594;-43
2021/01/26 10:22:13;;;;;;;28.70;12.63;;;;;;;0.78;81.98;99189.05;1817368;78;25683;-49
2021/01/26 10:24:40;;;;;;;31.23;13.83;;;;;;;0.79;81.32;99184.00;1817512;78;25722;-49
2021/01/26 10:27:20;;;;;;;29.60;14.00;;;;;;;0.79;81.36;99191.98;1817408;78;26304;-48
2021/01/26 10:29:48;;;;;;;27.98;13.70;;;;;;;0.81;81.51;99187.72;1817504;78;25762;-55
2021/01/26 10:32:42;;;;;;;25.27;12.30;;;;;;;0.84;81.57;99191.18;1785702;78;25631;-48
2021/01/26 10:35:27;;;;;;;26.07;13.55;;;;;;;0.86;81.30;99195.70;1810901;78;26269;-45
2021/01/26 10:37:54;;;;;;;29.52;13.03;;;;;;;0.88;81.37;99189.56;1817514;78;25813;-46
2021/01/26 10:40:32;;;;;;;24.75;13.05;;;;;;;0.90;81.35;99198.06;1817418;78;25958;-46
2021/01/26 10:43:12;;;;;;;25.82;12.60;;;;;;;0.92;81.23;99190.08;1817271;78;25756;-49
2021/01/26 10:45:52;;;;;;;27.05;12.25;;;;;;;0.96;81.06;99196.20;1817332;78;25692;-50
2021/01/26 10:48:32;;;;;;;25.80;11.80;;;;;;;0.92;80.85;99183.42;1817387;78;25776;-51
2021/01/26 10:51:16;;;;;;;23.95;10.80;;;;;;;1.02;81.17;99184.44;1817516;78;25705;-50
2021/01/26 10:53:47;;;;;;;18.95;11.10;;;;;;;1.07;80.83;99184.42;1817249;78;26712;-50
2021/01/26 10:56:15;;;;;;;24.12;11.85;;;;;;;1.07;80.72;99189.23;1817224;78;25638;-52
2021/01/26 10:58:44;;;;;;;23.07;11.20;;;;;;;1.08;80.69;99188.69;1817342;78;25722;-47
2021/01/26 11:01:13;;;;;;;24.15;11.25;;;;;;;1.09;80.88;99185.76;1817434;78;25902;-49
2021/01/26 11:03:41;;;;;;;21.15;10.25;;;;;;;1.10;80.61;99184.67;1817661;78;25764;-52
2021/01/26 11:06:09;;;;;;;19.12;10.35;;;;;;;1.11;80.13;99192.14;1817439;78;25940;-46
2021/01/26 11:08:36;;;;;;;20.60;10.70;;;;;;;1.10;80.01;99186.00;1822720;78;25643;-52
2021/01/26 11:11:04;;;;;;;20.72;10.68;;;;;;;1.08;80.10;99189.48;1826760;78;25604;-50
2021/01/26 11:13:32;;;;;;;19.87;10.95;;;;;;;1.08;80.43;99196.68;1826745;78;25724;-49
2021/01/26 11:15:59;;;;;;;18.20;9.83;;;;;;;1.07;80.48;99192.41;1820625;77;25688;-49
2021/01/26 11:18:26;;;;;;;17.75;10.18;;;;;;;1.08;80.64;99193.47;1809935;77;26134;-52
2021/01/26 11:20:53;;;;;;;24.57;11.18;;;;;;;1.09;80.72;99187.09;1795153;78;25551;-56
2021/01/26 11:23:20;;;;;;;15.70;9.03;;;;;;;1.08;80.84;99192.14;1793438;79;25693;-56
2021/01/26 11:25:47;;;;;;;20.45;11.00;;;;;;;1.06;80.07;99186.84;1793260;79;25651;-56
2021/01/26 11:28:14;;;;;;;18.77;10.80;;;;;;;1.02;80.60;99182.59;1793481;79;25571;-56
2021/01/26 11:30:41;;;;;;;17.75;9.88;;;;;;;1.00;80.30;99197.23;1793477;79;25764;-51
2021/01/26 11:33:08;;;;;;;18.37;10.80;;;;;;;0.98;80.60;99192.73;1793087;79;25699;-54
2021/01/26 11:35:35;;;;;;;17.42;10.43;;;;;;;0.96;80.94;99189.00;1793499;79;25689;-56
2021/01/26 11:38:04;;;;;;;20.95;10.68;;;;;;;0.98;80.83;99192.73;1793628;79;25244;-52
2021/01/26 11:40:31;;;;;;;19.90;11.40;;;;;;;0.98;81.07;99194.84;1793434;79;25686;-54
2021/01/26 11:42:59;;;;;;;22.20;11.28;;;;;;;0.99;81.18;99194.30;1793534;79;25930;-57
2021/01/26 11:45:31;;;;;;;24.87;11.97;;;;;;;1.00;81.04;99202.56;1793516;79;25757;-54
2021/01/26 11:47:59;;;;;;;20.68;11.75;;;;;;;1.04;81.30;99194.28;1793397;79;25810;-56
2021/01/26 11:50:27;;;;;;;25.85;11.75;;;;;;;1.03;81.18;99198.82;1793625;79;25637;-57
2021/01/26 11:52:54;;;;;;;20.80;11.85;;;;;;;1.00;81.01;99187.38;1793451;79;25748;-56
2021/01/26 11:55:26;;;;;;;21.30;12.23;;;;;;;1.00;80.71;99196.70;1793475;79;26737;-53
2021/01/26 11:57:54;;;;;;;19.40;10.68;;;;;;;0.97;80.87;99197.78;1793504;79;25709;-54
2021/01/26 12:00:25;;;;;;;21.97;11.30;;;;;;;0.92;80.29;99195.41;1793557;79;25598;-47
2021/01/26 12:02:53;;;;;;;21.90;12.33;;;;;;;0.90;81.14;99198.06;1793385;79;25670;-48
2021/01/26 12:05:25;;;;;;;27.98;12.28;;;;;;;0.89;80.70;99195.16;1793579;79;25690;-47
2021/01/26 12:07:53;;;;;;;25.17;12.00;;;;;;;0.87;80.99;99194.09;1792604;79;26577;-49
2021/01/26 12:10:21;;;;;;;24.23;12.18;;;;;;;0.86;81.04;99191.16;1788094;80;25650;-54
2021/01/26 12:12:49;;;;;;;26.62;12.53;;;;;;;0.86;80.78;99192.48;1788143;79;25700;-46